Tete-A-La-Baleine, Canada
Current Conditions -  °F | °C
As of 4:00 AM on Monday 22 Dec 2014 (Local Time) from CWDH Reporting Station
Overcast Overcast  
Wind Chill: 19°   Ceiling: 1800
Heat Index: 19°   Visibility: 9mi
Dew Point: 14°   Wind: 0mph
Humidity: 78%   Direction: NA
Pressure: 30.37"   Gusts: NA
Location:  50.7°N, 59.33°W
Report Text: CWDH 220800Z AUTO 00000KT 9SM OVC018 M07/M10 A3037 RMK SLP287 T10701102 WSI/SWOB
Loading
Personal Weather Stations






























Interactive Weather Map New forecast layout! Learn more

10-Day Weather Forecast

Advertisements
Track Severe Weather on mobile